Time;durP1;ratioP1;P1;durP2;ratioP2;P2;SDS_P1;SDS_P2;PMS_P1;PMS_P2;Temp;Humidity;BMP_temperature;BMP_pressure;BME280_temperature;BME280_humidity;BME280_pressure;Samples;Min_cycle;Max_cycle;Signal;HPM_P1;HPM_P2
2022/12/05 00:01:23;;;;;;;18.57;13.57;;;3.90;99.90;;;;;;5053421;28;20931;-59
2022/12/05 00:03:53;;;;;;;21.73;14.07;;;3.90;99.90;;;;;;5053802;28;20925;-61
2022/12/05 00:06:21;;;;;;;20.40;13.50;;;4.10;99.90;;;;;;5053462;28;20474;-60
2022/12/05 00:08:49;;;;;;;26.43;15.37;;;4.10;99.90;;;;;;5053625;28;20449;-60
2022/12/05 00:11:19;;;;;;;20.00;13.70;;;4.00;99.90;;;;;;5053748;28;20449;-60
2022/12/05 00:13:47;;;;;;;24.07;14.63;;;4.00;99.90;;;;;;5053492;28;20460;-60
2022/12/05 00:16:16;;;;;;;22.63;14.03;;;4.00;99.90;;;;;;5053276;28;20983;-60
2022/12/05 00:18:45;;;;;;;23.10;14.40;;;4.10;99.90;;;;;;5053513;28;21107;-60
2022/12/05 00:21:14;;;;;;;17.70;14.30;;;3.90;99.90;;;;;;5053315;28;20449;-60
2022/12/05 00:23:42;;;;;;;20.10;14.27;;;3.80;99.90;;;;;;5053319;28;20481;-60
2022/12/05 00:26:09;;;;;;;21.10;12.00;;;3.90;99.90;;;;;;5053265;28;20989;-60
2022/12/05 00:28:37;;;;;;;21.70;14.17;;;3.80;99.90;;;;;;5053175;28;20485;-60
2022/12/05 00:31:05;;;;;;;19.33;14.13;;;3.80;99.90;;;;;;5052652;28;20449;-60
2022/12/05 00:33:32;;;;;;;17.20;11.70;;;3.90;99.90;;;;;;5053678;28;20806;-60
2022/12/05 00:36:04;;;;;;;27.80;14.00;;;3.90;99.90;;;;;;5053022;28;20504;-60
2022/12/05 00:38:31;;;;;;;19.57;13.53;;;3.90;99.90;;;;;;5053611;28;20429;-60
2022/12/05 00:41:03;;;;;;;22.67;13.30;;;3.90;99.90;;;;;;5053058;28;20495;-60
2022/12/05 00:43:31;;;;;;;21.03;13.90;;;4.00;99.90;;;;;;5053227;28;21013;-59
2022/12/05 00:46:02;;;;;;;21.67;14.00;;;4.00;99.90;;;;;;5053289;28;20465;-60
2022/12/05 00:48:30;;;;;;;20.07;12.10;;;4.00;99.90;;;;;;5053118;28;20445;-60
2022/12/05 00:51:06;;;;;;;22.30;13.10;;;4.00;99.90;;;;;;5052917;28;20919;-60
2022/12/05 00:53:34;;;;;;;19.60;13.00;;;3.90;99.90;;;;;;5053075;28;20433;-60
2022/12/05 00:56:04;;;;;;;22.23;12.63;;;3.80;99.90;;;;;;5053211;28;20484;-60
2022/12/05 00:58:32;;;;;;;18.57;14.00;;;3.80;99.90;;;;;;5053005;28;20446;-60
2022/12/05 01:01:06;;;;;;;16.73;11.77;;;3.90;99.90;;;;;;5052778;28;20947;-60
2022/12/05 01:03:34;;;;;;;18.10;12.43;;;3.80;99.90;;;;;;5052932;28;20512;-60
2022/12/05 01:06:01;;;;;;;17.80;12.60;;;3.90;99.90;;;;;;5052761;28;20472;-60
2022/12/05 01:08:30;;;;;;;21.43;12.93;;;3.90;99.90;;;;;;5053212;28;20475;-60
2022/12/05 01:10:59;;;;;;;26.33;14.77;;;3.90;99.90;;;;;;5052727;28;20808;-60
2022/12/05 01:13:27;;;;;;;17.40;11.00;;;3.90;99.90;;;;;;5053148;28;20449;-60
2022/12/05 01:15:55;;;;;;;15.90;12.30;;;3.90;99.90;;;;;;5052968;28;20496;-60
2022/12/05 01:18:23;;;;;;;21.13;13.00;;;3.90;99.90;;;;;;5052903;28;20445;-60
2022/12/05 01:20:51;;;;;;;21.40;11.73;;;4.00;99.90;;;;;;5052699;28;20575;-60
2022/12/05 01:23:18;;;;;;;17.00;12.93;;;3.90;99.90;;;;;;5052921;28;20531;-60
2022/12/05 01:25:50;;;;;;;20.93;14.33;;;4.00;99.90;;;;;;5052161;28;20488;-60
2022/12/05 01:28:18;;;;;;;17.47;12.00;;;4.00;99.90;;;;;;5052769;28;20429;-60
2022/12/05 01:30:47;;;;;;;14.83;11.37;;;4.10;99.90;;;;;;5052504;28;20450;-60
2022/12/05 01:33:15;;;;;;;20.17;13.50;;;4.10;99.90;;;;;;5052660;28;20453;-60
2022/12/05 01:35:42;;;;;;;19.13;12.00;;;4.20;99.90;;;;;;5052786;28;20854;-60
2022/12/05 01:38:11;;;;;;;19.93;11.90;;;4.20;99.90;;;;;;5052701;28;20495;-60
2022/12/05 01:40:39;;;;;;;21.00;12.47;;;4.20;99.90;;;;;;5053207;28;20448;-60
2022/12/05 01:43:14;;;;;;;19.80;12.93;;;4.20;99.90;;;;;;5056270;28;20846;-60
2022/12/05 01:45:43;;;;;;;23.43;13.47;;;4.20;99.90;;;;;;5056175;28;20504;-60
2022/12/05 01:48:16;;;;;;;20.33;11.43;;;4.10;99.90;;;;;;5056274;28;20488;-60
2022/12/05 01:50:44;;;;;;;19.27;12.20;;;4.10;99.90;;;;;;5056360;28;20483;-60
2022/12/05 01:53:12;;;;;;;16.40;12.33;;;4.20;99.90;;;;;;5056531;28;20469;-60
2022/12/05 01:55:39;;;;;;;18.03;11.60;;;4.10;99.90;;;;;;5056340;28;20479;-60
2022/12/05 01:58:10;;;;;;;14.57;10.30;;;4.20;99.90;;;;;;5056387;28;20453;-60
2022/12/05 02:00:39;;;;;;;22.40;12.40;;;4.10;99.90;;;;;;5055937;28;20487;-60
2022/12/05 02:03:09;;;;;;;15.63;10.50;;;4.10;99.90;;;;;;5055979;28;20480;-60
2022/12/05 02:05:38;;;;;;;15.17;10.70;;;4.10;99.90;;;;;;5056274;28;20476;-60
2022/12/05 02:08:08;;;;;;;16.17;10.97;;;4.10;99.90;;;;;;5055965;28;20479;-60
2022/12/05 02:10:38;;;;;;;14.97;10.00;;;4.10;99.90;;;;;;5056237;28;20445;-60
2022/12/05 02:13:29;;;;;;;15.17;10.70;;;4.10;99.90;;;;;;5055721;28;20440;-60
2022/12/05 02:16:03;;;;;;;14.53;10.40;;;4.10;99.90;;;;;;5055086;28;20477;-60
2022/12/05 02:18:51;;;;;;;17.73;11.90;;;4.10;99.90;;;;;;5056060;28;20838;-60
2022/12/05 02:21:50;;;;;;;18.37;11.37;;;4.10;99.90;;;;;;5055661;28;20434;-60
2022/12/05 02:24:46;;;;;;;18.80;11.57;;;4.10;99.90;;;;;;5055691;28;20473;-60
2022/12/05 02:27:39;;;;;;;13.97;10.37;;;4.00;99.90;;;;;;5055326;28;20895;-60
2022/12/05 02:30:11;;;;;;;18.17;11.00;;;4.00;99.90;;;;;;5055739;28;20827;-60
2022/12/05 02:32:51;;;;;;;16.80;11.00;;;4.00;99.90;;;;;;5055891;28;20425;-60
2022/12/05 02:35:35;;;;;;;16.80;10.93;;;4.00;99.90;;;;;;5055637;28;20457;-60
2022/12/05 02:38:15;;;;;;;13.73;9.77;;;4.00;99.90;;;;;;5055296;28;20838;-60
2022/12/05 02:40:48;;;;;;;17.80;12.47;;;4.00;99.90;;;;;;5055531;28;20483;-60
2022/12/05 02:43:20;;;;;;;23.13;12.13;;;4.00;99.90;;;;;;5055497;28;20561;-60
2022/12/05 02:45:54;;;;;;;19.83;11.53;;;4.00;99.90;;;;;;5055076;28;20819;-60
2022/12/05 02:48:22;;;;;;;12.30;9.17;;;4.10;99.90;;;;;;5055227;28;20931;-60
2022/12/05 02:50:52;;;;;;;22.57;12.20;;;4.00;99.90;;;;;;5055243;28;20540;-60
2022/12/05 02:53:22;;;;;;;17.30;11.57;;;3.90;99.90;;;;;;5054464;28;20445;-60
2022/12/05 02:55:50;;;;;;;18.37;12.20;;;3.90;99.90;;;;;;5055112;28;21019;-59
2022/12/05 02:58:23;;;;;;;21.20;13.33;;;4.00;99.90;;;;;;5055285;28;20449;-60
2022/12/05 03:00:56;;;;;;;18.20;11.70;;;4.00;99.90;;;;;;5054745;28;20430;-60
2022/12/05 03:03:24;;;;;;;19.80;12.03;;;4.00;99.90;;;;;;5054931;28;20925;-60
2022/12/05 03:05:59;;;;;;;22.30;13.87;;;3.90;99.90;;;;;;5054604;28;20478;-61
2022/12/05 03:08:31;;;;;;;18.00;12.53;;;3.90;99.90;;;;;;5055074;28;20437;-60
2022/12/05 03:11:01;;;;;;;23.57;13.50;;;3.90;99.90;;;;;;5054881;28;20429;-60
2022/12/05 03:13:33;;;;;;;15.80;11.93;;;4.00;99.90;;;;;;5054684;28;20445;-60
2022/12/05 03:16:07;;;;;;;18.67;12.87;;;4.00;99.90;;;;;;5054908;28;20472;-60
2022/12/05 03:18:39;;;;;;;20.53;12.57;;;4.10;99.90;;;;;;5054575;28;20437;-60
2022/12/05 03:21:14;;;;;;;18.60;10.37;;;4.20;99.90;;;;;;5054576;28;20437;-60
2022/12/05 03:23:46;;;;;;;19.00;11.80;;;4.20;99.90;;;;;;5054623;28;20461;-60
2022/12/05 03:26:20;;;;;;;18.30;13.00;;;4.20;99.90;;;;;;5054470;28;20614;-60
2022/12/05 03:28:56;;;;;;;19.73;11.23;;;4.20;99.90;;;;;;5054588;28;20437;-60
2022/12/05 03:31:38;;;;;;;18.47;10.63;;;4.30;99.90;;;;;;5054243;28;20923;-60
2022/12/05 03:34:14;;;;;;;21.93;12.37;;;4.20;99.90;;;;;;5054302;28;20453;-60
2022/12/05 03:36:46;;;;;;;20.10;12.93;;;4.20;99.90;;;;;;5054416;28;20568;-60
2022/12/05 03:39:21;;;;;;;19.00;11.93;;;4.20;99.90;;;;;;5054277;28;20433;-60
2022/12/05 03:41:58;;;;;;;16.50;11.80;;;4.30;99.90;;;;;;5054481;28;20433;-61
2022/12/05 03:44:34;;;;;;;21.70;13.67;;;4.30;99.90;;;;;;5054275;28;20465;-60
2022/12/05 03:47:08;;;;;;;21.80;12.27;;;4.20;99.90;;;;;;5054327;28;20465;-60
2022/12/05 03:49:41;;;;;;;17.10;12.47;;;4.10;99.90;;;;;;5054119;28;20437;-60
2022/12/05 03:52:13;;;;;;;22.13;14.37;;;4.20;99.90;;;;;;5054088;28;20883;-60
2022/12/05 03:54:45;;;;;;;19.13;11.90;;;4.20;99.90;;;;;;5053937;28;20457;-60
2022/12/05 03:57:17;;;;;;;17.47;12.83;;;4.20;99.90;;;;;;5053686;28;20904;-60
2022/12/05 03:59:47;;;;;;;26.03;13.57;;;4.20;99.90;;;;;;5053788;28;20433;-60
2022/12/05 04:02:22;;;;;;;18.00;13.10;;;4.30;99.90;;;;;;5053644;28;20522;-60
2022/12/05 04:04:55;;;;;;;18.30;12.67;;;4.30;99.90;;;;;;5053032;28;20473;-60
2022/12/05 04:07:24;;;;;;;20.73;13.07;;;4.30;99.90;;;;;;5053606;28;20437;-60
2022/12/05 04:09:57;;;;;;;20.87;13.80;;;4.30;99.90;;;;;;5053711;28;20951;-60
2022/12/05 04:12:28;;;;;;;22.73;13.50;;;4.40;99.90;;;;;;5053682;28;20453;-60
2022/12/05 04:15:00;;;;;;;19.97;13.40;;;4.50;99.90;;;;;;5053504;28;20429;-60
2022/12/05 04:17:34;;;;;;;18.60;13.20;;;4.60;99.90;;;;;;5054077;28;20895;-60
2022/12/05 04:22:50;;;;;;;18.47;11.43;;;4.60;99.90;;;;;;5053457;28;20407;-60
2022/12/05 04:25:32;;;;;;;21.80;12.23;;;4.40;99.90;;;;;;5053353;28;20556;-60
2022/12/05 04:28:12;;;;;;;22.00;12.90;;;4.40;99.90;;;;;;5053112;28;20499;-60
2022/12/05 04:30:46;;;;;;;19.07;12.47;;;4.40;99.90;;;;;;5053287;28;20520;-60
2022/12/05 04:33:18;;;;;;;18.70;11.47;;;4.30;99.90;;;;;;5053481;28;20444;-60
2022/12/05 04:35:51;;;;;;;19.00;12.10;;;4.40;99.90;;;;;;5053221;28;20457;-60
2022/12/05 04:38:23;;;;;;;21.73;12.87;;;4.60;99.90;;;;;;5053541;28;20452;-60
2022/12/05 04:40:57;;;;;;;22.10;12.77;;;4.50;99.90;;;;;;5053273;28;20426;-60
2022/12/05 04:43:26;;;;;;;18.77;12.97;;;4.60;99.90;;;;;;5053109;28;20465;-60
2022/12/05 04:45:56;;;;;;;19.17;12.70;;;4.60;99.90;;;;;;5052916;28;20468;-60
2022/12/05 04:48:27;;;;;;;19.97;12.20;;;4.60;99.90;;;;;;5053094;28;20463;-59
2022/12/05 04:50:56;;;;;;;19.53;11.20;;;4.50;99.90;;;;;;5053117;28;20430;-60
2022/12/05 04:53:29;;;;;;;19.60;12.47;;;4.40;99.90;;;;;;5053377;28;20453;-59
2022/12/05 04:55:59;;;;;;;17.47;11.80;;;4.50;99.90;;;;;;5053241;28;20481;-60
2022/12/05 04:58:28;;;;;;;18.40;11.90;;;4.50;99.90;;;;;;5053335;28;20457;-60
2022/12/05 05:01:02;;;;;;;13.77;9.70;;;4.70;99.90;;;;;;5053126;28;20461;-60
2022/12/05 05:03:36;;;;;;;20.77;13.40;;;4.80;99.90;;;;;;5053100;28;20502;-60
2022/12/05 05:06:04;;;;;;;15.30;11.77;;;4.70;99.90;;;;;;5053249;28;20469;-60
2022/12/05 05:08:31;;;;;;;22.10;12.53;;;4.70;99.90;;;;;;5053059;28;20530;-61
2022/12/05 05:11:08;;;;;;;20.33;12.90;;;4.70;99.90;;;;;;5052998;28;20445;-60
2022/12/05 05:13:35;;;;;;;20.70;12.20;;;4.60;99.90;;;;;;5053129;28;20429;-60
2022/12/05 05:16:03;;;;;;;17.47;12.43;;;4.60;99.90;;;;;;5054718;28;20473;-60
2022/12/05 05:18:32;;;;;;;19.70;12.47;;;4.50;99.90;;;;;;5056701;28;20453;-61
2022/12/05 05:20:59;;;;;;;16.60;11.80;;;4.60;99.90;;;;;;5056799;28;20531;-61
2022/12/05 05:23:27;;;;;;;19.07;12.80;;;4.60;99.90;;;;;;5056633;28;20481;-60
2022/12/05 05:25:55;;;;;;;19.33;12.80;;;4.70;99.90;;;;;;5056727;28;20546;-61
2022/12/05 05:28:23;;;;;;;18.17;12.60;;;4.70;99.90;;;;;;5056596;28;20464;-60
2022/12/05 05:30:50;;;;;;;15.80;11.67;;;4.70;99.90;;;;;;5056465;28;20856;-60
2022/12/05 05:33:17;;;;;;;19.53;11.00;;;4.80;99.90;;;;;;5056310;28;20441;-60
2022/12/05 05:35:46;;;;;;;18.20;12.10;;;4.70;99.90;;;;;;5056552;28;20469;-60
2022/12/05 05:38:14;;;;;;;19.70;11.47;;;4.70;99.90;;;;;;5056431;28;20452;-59
2022/12/05 05:40:41;;;;;;;15.53;10.73;;;4.70;99.90;;;;;;5056804;28;20460;-59
2022/12/05 05:43:08;;;;;;;13.73;10.33;;;4.70;99.90;;;;;;5056280;28;20779;-60
2022/12/05 05:45:37;;;;;;;15.77;10.83;;;4.60;99.90;;;;;;5056470;28;20487;-60
2022/12/05 05:48:06;;;;;;;14.67;10.73;;;4.60;99.90;;;;;;5056406;28;21013;-60
2022/12/05 05:50:33;;;;;;;13.67;11.20;;;4.70;99.90;;;;;;5056422;28;20444;-60
2022/12/05 05:53:02;;;;;;;19.73;11.13;;;4.70;99.90;;;;;;5056591;28;20448;-60
2022/12/05 05:55:29;;;;;;;14.53;10.97;;;4.70;99.90;;;;;;5056626;28;21046;-59
2022/12/05 05:57:57;;;;;;;16.20;12.20;;;4.70;99.90;;;;;;5056356;28;20518;-60
2022/12/05 06:00:24;;;;;;;16.60;10.93;;;4.70;99.90;;;;;;5055839;28;20944;-60
2022/12/05 06:02:52;;;;;;;18.63;11.23;;;4.80;99.90;;;;;;5056296;28;20453;-60
2022/12/05 06:05:19;;;;;;;19.17;12.10;;;4.90;99.90;;;;;;5055557;28;20500;-60
2022/12/05 06:07:47;;;;;;;20.93;12.50;;;4.90;99.90;;;;;;5055924;28;20502;-60
2022/12/05 06:10:15;;;;;;;20.57;11.27;;;4.90;99.90;;;;;;5056028;28;20453;-60
2022/12/05 06:12:43;;;;;;;18.13;12.60;;;4.80;99.90;;;;;;5055979;28;20449;-60
2022/12/05 06:15:11;;;;;;;13.87;10.80;;;4.80;99.90;;;;;;5055375;28;20824;-60
2022/12/05 06:17:38;;;;;;;20.13;12.47;;;4.90;99.90;;;;;;5055701;28;20587;-61
2022/12/05 06:20:07;;;;;;;15.00;10.33;;;4.90;99.90;;;;;;5055738;28;20456;-61
2022/12/05 06:22:35;;;;;;;14.53;11.27;;;4.80;99.90;;;;;;5055864;28;20544;-61
2022/12/05 06:25:02;;;;;;;15.10;11.87;;;4.80;99.90;;;;;;5055577;28;20489;-59
2022/12/05 06:27:31;;;;;;;13.40;9.03;;;4.80;99.90;;;;;;5052903;28;21041;-59
2022/12/05 06:29:58;;;;;;;17.20;10.43;;;4.80;99.90;;;;;;5055213;28;20453;-59
2022/12/05 06:32:27;;;;;;;13.07;10.93;;;4.90;99.90;;;;;;5055636;28;20837;-59
2022/12/05 06:34:55;;;;;;;19.80;12.43;;;4.80;99.90;;;;;;5055369;28;20449;-60
2022/12/05 06:37:22;;;;;;;17.83;10.50;;;4.80;99.90;;;;;;5055478;28;20453;-60
2022/12/05 06:39:52;;;;;;;16.60;11.70;;;4.80;99.90;;;;;;5055265;28;20452;-60
2022/12/05 06:42:21;;;;;;;22.17;12.10;;;4.80;99.90;;;;;;5055484;28;20485;-59
2022/12/05 06:44:49;;;;;;;14.73;10.70;;;4.90;99.90;;;;;;5054232;28;20481;-60
2022/12/05 06:47:17;;;;;;;15.07;10.47;;;4.90;99.90;;;;;;5055510;28;20449;-59
2022/12/05 06:49:44;;;;;;;18.80;11.50;;;4.90;99.90;;;;;;5055184;28;20476;-59
2022/12/05 06:52:11;;;;;;;19.57;11.47;;;4.90;99.90;;;;;;5055169;28;20453;-59
2022/12/05 06:54:39;;;;;;;15.43;10.80;;;4.90;99.90;;;;;;5054840;28;20453;-59
2022/12/05 06:57:06;;;;;;;16.73;10.20;;;5.00;99.90;;;;;;5055034;28;20465;-60
2022/12/05 06:59:34;;;;;;;16.43;11.30;;;4.80;99.90;;;;;;5054940;28;20944;-60
2022/12/05 07:02:01;;;;;;;15.63;11.87;;;4.70;99.90;;;;;;5054775;28;20445;-60
2022/12/05 07:04:29;;;;;;;13.27;10.50;;;4.70;99.90;;;;;;5054567;28;20481;-59
2022/12/05 07:06:57;;;;;;;19.03;10.93;;;4.70;99.90;;;;;;5054718;28;20469;-60
2022/12/05 07:09:44;;;;;;;15.50;11.60;;;4.70;99.90;;;;;;5054413;28;20464;-60
2022/12/05 07:12:12;;;;;;;13.23;10.40;;;4.70;99.90;;;;;;5054644;28;20442;-60
2022/12/05 07:14:39;;;;;;;16.50;10.77;;;4.80;99.90;;;;;;5054222;28;20460;-60
2022/12/05 07:17:08;;;;;;;15.63;11.60;;;4.90;99.90;;;;;;5054318;28;20481;-59
2022/12/05 07:19:35;;;;;;;16.23;10.37;;;4.90;99.90;;;;;;5054275;28;20448;-59
2022/12/05 07:22:03;;;;;;;18.17;12.53;;;4.90;99.90;;;;;;5054476;28;20456;-60
2022/12/05 07:24:31;;;;;;;14.77;9.70;;;4.90;99.90;;;;;;5054027;28;20492;-59
2022/12/05 07:26:58;;;;;;;15.00;10.13;;;4.90;99.90;;;;;;5054161;28;20485;-60
2022/12/05 07:29:26;;;;;;;15.93;11.20;;;4.80;99.90;;;;;;5054470;28;20523;-59
2022/12/05 07:31:54;;;;;;;15.87;10.97;;;4.90;99.90;;;;;;5054395;28;20455;-59
2022/12/05 07:34:23;;;;;;;15.57;11.30;;;4.90;99.90;;;;;;5054215;28;20473;-59
2022/12/05 07:36:51;;;;;;;17.83;11.27;;;4.90;99.90;;;;;;5053944;28;20472;-59
2022/12/05 07:39:18;;;;;;;22.03;11.03;;;4.90;99.90;;;;;;5053908;28;20827;-59
2022/12/05 07:41:46;;;;;;;15.90;11.13;;;5.00;99.90;;;;;;5054252;28;20456;-59
2022/12/05 07:44:13;;;;;;;19.13;12.10;;;5.10;99.90;;;;;;5053563;28;20508;-60
2022/12/05 07:46:41;;;;;;;14.30;9.97;;;5.10;99.90;;;;;;5053417;28;20852;-59
2022/12/05 07:49:08;;;;;;;14.77;9.47;;;5.10;99.90;;;;;;5053796;28;20445;-59
2022/12/05 07:51:37;;;;;;;20.23;11.33;;;5.20;99.90;;;;;;5053181;28;20460;-60
2022/12/05 07:54:05;;;;;;;12.97;10.63;;;5.30;99.90;;;;;;5053508;28;20449;-60
2022/12/05 07:56:33;;;;;;;16.93;12.07;;;5.20;99.90;;;;;;5053887;28;20560;-60
2022/12/05 07:59:00;;;;;;;16.07;11.17;;;5.20;99.90;;;;;;5053274;28;20456;-60
2022/12/05 08:01:29;;;;;;;18.93;12.20;;;5.10;99.90;;;;;;5053652;28;20449;-60
2022/12/05 08:03:58;;;;;;;14.50;10.63;;;5.10;99.90;;;;;;5053266;28;20446;-60
2022/12/05 08:06:28;;;;;;;14.10;10.70;;;5.20;99.90;;;;;;5053186;28;20468;-59
2022/12/05 08:08:58;;;;;;;12.93;9.87;;;5.30;99.90;;;;;;5053026;28;20835;-60
2022/12/05 08:11:27;;;;;;;13.37;10.10;;;5.40;99.90;;;;;;5053453;28;20453;-59
2022/12/05 08:13:55;;;;;;;13.60;9.10;;;5.40;99.90;;;;;;5052852;28;20792;-60
2022/12/05 08:16:24;;;;;;;14.80;10.93;;;5.40;99.90;;;;;;5053526;28;20553;-60
2022/12/05 08:18:55;;;;;;;15.67;10.33;;;5.30;99.90;;;;;;5053274;28;20499;-60
2022/12/05 08:21:24;;;;;;;11.70;9.77;;;5.40;99.90;;;;;;5053463;28;20449;-59
2022/12/05 08:23:52;;;;;;;14.40;10.70;;;5.50;99.90;;;;;;5053211;28;20477;-59
2022/12/05 08:26:23;;;;;;;14.90;9.13;;;5.40;99.90;;;;;;5053225;28;20519;-59
2022/12/05 08:28:53;;;;;;;14.13;9.13;;;5.50;99.90;;;;;;5052908;28;20434;-59
2022/12/05 08:31:26;;;;;;;12.50;10.30;;;5.50;99.90;;;;;;5052808;28;20483;-60
2022/12/05 08:33:53;;;;;;;10.60;9.40;;;5.60;99.90;;;;;;5052924;28;20449;-59
2022/12/05 08:36:21;;;;;;;11.67;10.10;;;5.60;99.90;;;;;;5053261;28;20482;-59
2022/12/05 08:38:48;;;;;;;12.77;10.17;;;5.60;99.90;;;;;;5052847;28;20445;-59
2022/12/05 08:41:17;;;;;;;15.10;10.60;;;5.70;99.90;;;;;;5053060;28;20449;-59
2022/12/05 08:43:46;;;;;;;12.33;9.10;;;5.60;99.90;;;;;;5052730;28;20468;-57
2022/12/05 08:46:14;;;;;;;13.10;9.80;;;5.50;99.90;;;;;;5052707;28;20485;-59
2022/12/05 08:48:41;;;;;;;12.77;9.00;;;5.60;99.90;;;;;;5052818;28;20449;-60
2022/12/05 08:51:11;;;;;;;11.10;8.30;;;5.60;99.90;;;;;;5052317;28;20944;-60
2022/12/05 08:53:39;;;;;;;16.07;9.67;;;5.70;99.90;;;;;;5053002;28;20519;-60
2022/12/05 08:56:09;;;;;;;12.30;8.97;;;5.70;99.90;;;;;;5053074;28;20473;-60
2022/12/05 08:58:37;;;;;;;11.30;8.60;;;5.70;99.90;;;;;;5052527;28;20489;-60
2022/12/05 09:01:07;;;;;;;11.60;8.90;;;5.70;99.90;;;;;;5052535;28;20455;-60
2022/12/05 09:03:35;;;;;;;10.07;8.97;;;5.60;99.90;;;;;;5052419;28;20888;-60
2022/12/05 09:06:07;;;;;;;10.50;9.23;;;5.70;99.90;;;;;;5052692;28;20492;-60
2022/12/05 09:08:34;;;;;;;13.60;9.50;;;5.90;99.90;;;;;;5052620;28;20451;-60
2022/12/05 09:11:06;;;;;;;12.10;9.80;;;5.90;99.90;;;;;;5052944;28;20452;-61
2022/12/05 09:13:33;;;;;;;12.83;8.90;;;6.00;99.90;;;;;;5052692;28;20487;-61
2022/12/05 09:16:07;;;;;;;13.50;9.60;;;6.00;99.90;;;;;;5052365;28;20471;-61
2022/12/05 09:18:35;;;;;;;10.50;8.37;;;6.00;99.90;;;;;;5052559;28;20437;-61
2022/12/05 09:21:06;;;;;;;13.87;9.20;;;6.10;99.90;;;;;;5052582;28;20455;-60
2022/12/05 09:23:34;;;;;;;11.67;9.47;;;6.20;99.90;;;;;;5052458;28;20457;-60
2022/12/05 09:26:05;;;;;;;11.50;9.33;;;6.10;99.90;;;;;;5052570;28;20500;-60
2022/12/05 09:28:34;;;;;;;10.60;8.47;;;6.10;99.90;;;;;;5052385;28;20448;-60
2022/12/05 09:31:03;;;;;;;10.23;9.20;;;6.20;99.90;;;;;;5052562;28;20528;-60
2022/12/05 09:33:34;;;;;;;10.13;8.63;;;6.20;99.90;;;;;;5052447;28;20457;-60
2022/12/05 09:36:03;;;;;;;10.80;9.20;;;6.30;99.90;;;;;;5052238;28;20469;-60
2022/12/05 09:38:31;;;;;;;8.97;7.47;;;6.30;99.90;;;;;;5052540;28;20445;-61
2022/12/05 09:41:11;;;;;;;9.07;8.13;;;6.20;99.90;;;;;;5052326;28;20456;-61
2022/12/05 09:43:46;;;;;;;9.90;8.33;;;6.30;99.90;;;;;;5052671;28;20430;-60
2022/12/05 09:46:27;;;;;;;10.67;8.73;;;6.30;99.90;;;;;;5052407;28;20480;-60
2022/12/05 09:48:57;;;;;;;9.37;7.83;;;6.40;99.90;;;;;;5052340;28;20429;-61
2022/12/05 09:51:26;;;;;;;12.13;9.50;;;6.40;99.90;;;;;;5052740;28;20449;-60
2022/12/05 09:53:54;;;;;;;10.43;8.33;;;6.30;99.90;;;;;;5052315;28;20445;-61
2022/12/05 09:56:27;;;;;;;10.23;7.70;;;6.30;99.90;;;;;;5052330;28;20481;-61
2022/12/05 09:58:55;;;;;;;10.90;8.93;;;6.30;99.90;;;;;;5052716;28;20429;-61
2022/12/05 10:01:37;;;;;;;9.63;8.10;;;6.40;99.90;;;;;;5052119;28;20830;-60
2022/12/05 10:04:33;;;;;;;12.77;9.00;;;6.40;99.90;;;;;;5055194;28;20453;-60
2022/12/05 10:07:10;;;;;;;13.13;8.70;;;6.40;99.90;;;;;;5053754;28;20473;-61
2022/12/05 10:09:54;;;;;;;11.43;8.10;;;6.40;99.90;;;;;;5056327;28;20425;-60
2022/12/05 10:12:48;;;;;;;11.50;9.17;;;6.50;99.90;;;;;;5055992;28;20433;-62
2022/12/05 10:15:30;;;;;;;12.63;8.50;;;6.60;99.90;;;;;;5055477;28;20461;-60
2022/12/05 10:18:02;;;;;;;15.13;9.60;;;6.70;99.90;;;;;;5055264;28;20491;-60
2022/12/05 10:20:36;;;;;;;10.73;7.70;;;6.70;99.90;;;;;;5055614;28;20505;-60
2022/12/05 10:23:10;;;;;;;9.10;7.70;;;6.70;99.90;;;;;;5055381;28;20417;-60
2022/12/05 10:25:38;;;;;;;10.20;8.40;;;6.80;99.90;;;;;;5055642;28;20489;-60
2022/12/05 10:28:15;;;;;;;9.83;7.67;;;6.90;99.90;;;;;;5055220;28;20488;-59
2022/12/05 10:30:44;;;;;;;9.87;8.87;;;6.90;99.90;;;;;;5055430;28;20499;-61
2022/12/05 10:33:16;;;;;;;8.53;7.63;;;6.80;99.90;;;;;;5055068;28;20453;-61
2022/12/05 10:35:45;;;;;;;8.27;7.33;;;6.90;99.90;;;;;;5054958;28;20465;-61
2022/12/05 10:38:17;;;;;;;11.47;8.60;;;7.10;99.90;;;;;;5055442;28;20453;-61
2022/12/05 10:40:50;;;;;;;8.30;7.33;;;7.10;99.90;;;;;;5055283;28;20831;-61
2022/12/05 10:43:25;;;;;;;10.50;8.43;;;7.20;99.90;;;;;;5055344;28;20429;-61
2022/12/05 10:45:53;;;;;;;8.67;7.77;;;7.30;99.90;;;;;;5054733;28;20979;-61
2022/12/05 10:48:22;;;;;;;13.83;8.30;;;7.40;99.90;;;;;;5055010;28;20457;-61
2022/12/05 10:50:53;;;;;;;8.60;7.77;;;7.60;99.90;;;;;;5055117;28;20476;-61
2022/12/05 10:53:25;;;;;;;9.43;7.70;;;7.60;99.90;;;;;;5055005;28;20461;-61
2022/12/05 10:55:53;;;;;;;7.90;7.10;;;7.70;99.90;;;;;;5055029;28;20472;-60
2022/12/05 10:58:24;;;;;;;7.63;6.97;;;7.70;99.90;;;;;;5054846;28;20449;-61
2022/12/05 11:00:56;;;;;;;8.47;6.17;;;7.70;99.90;;;;;;5054559;28;20483;-61
2022/12/05 11:03:27;;;;;;;9.30;6.97;;;7.90;99.90;;;;;;5054535;28;20422;-62
2022/12/05 11:06:00;;;;;;;7.97;7.00;;;7.80;99.90;;;;;;5054843;28;20488;-62
2022/12/05 11:08:29;;;;;;;9.00;7.53;;;7.80;99.90;;;;;;5054222;28;20445;-62
2022/12/05 11:11:03;;;;;;;8.07;7.27;;;8.00;99.90;;;;;;5054446;28;20457;-61
2022/12/05 11:13:31;;;;;;;6.93;6.23;;;8.00;99.90;;;;;;5054024;28;20521;-62
2022/12/05 11:15:59;;;;;;;7.10;6.30;;;7.90;99.90;;;;;;5054259;28;20501;-62
2022/12/05 11:18:30;;;;;;;5.10;4.63;;;7.80;99.90;;;;;;5054098;28;20457;-62
2022/12/05 11:21:10;;;;;;;6.60;4.93;;;8.00;99.90;;;;;;5054481;28;20421;-62
2022/12/05 11:23:38;;;;;;;4.97;4.57;;;7.90;99.90;;;;;;5054208;28;20475;-62
2022/12/05 11:26:14;;;;;;;5.80;4.00;;;8.10;99.90;;;;;;5053575;28;20859;-62
2022/12/05 11:28:42;;;;;;;6.00;5.40;;;7.70;99.90;;;;;;5053933;28;20487;-62
2022/12/05 11:31:23;;;;;;;4.37;3.97;;;7.70;99.90;;;;;;5053899;28;20449;-61
2022/12/05 11:34:10;;;;;;;6.13;4.50;;;7.70;99.90;;;;;;5053951;28;20433;-61
2022/12/05 11:36:43;;;;;;;4.87;4.47;;;7.70;99.90;;;;;;5054330;28;20492;-61
2022/12/05 11:39:13;;;;;;;4.90;4.50;;;7.90;99.90;;;;;;5053858;28;20434;-61
2022/12/05 11:41:50;;;;;;;5.67;4.57;;;7.90;99.90;;;;;;5053803;28;20484;-62
2022/12/05 11:44:34;;;;;;;5.40;4.80;;;8.10;99.90;;;;;;5053834;28;20820;-61
2022/12/05 11:47:15;;;;;;;5.83;5.30;;;8.30;99.90;;;;;;5053304;28;20576;-61
2022/12/05 11:50:09;;;;;;;5.47;4.67;;;8.50;99.90;;;;;;5053947;28;20433;-61
2022/12/05 11:52:55;;;;;;;5.70;4.00;;;8.70;99.90;;;;;;5054056;28;20429;-61
2022/12/05 11:55:30;;;;;;;5.43;4.93;;;9.10;99.90;;;;;;5053649;28;20572;-61
2022/12/05 11:58:14;;;;;;;4.63;4.07;;;9.10;99.90;;;;;;5053243;28;20461;-61
2022/12/05 12:00:53;;;;;;;4.53;4.13;;;9.20;99.90;;;;;;5053677;28;20503;-61
2022/12/05 12:03:46;;;;;;;5.53;4.17;;;9.00;99.90;;;;;;5053751;28;20437;-61
2022/12/05 12:06:27;;;;;;;4.97;4.47;;;9.00;99.90;;;;;;5053328;28;20510;-61
2022/12/05 12:09:16;;;;;;;5.87;4.50;;;8.90;99.90;;;;;;5053409;28;20440;-61
2022/12/05 12:11:52;;;;;;;4.70;4.20;;;8.80;99.90;;;;;;5053694;28;20429;-61
2022/12/05 12:14:31;;;;;;;3.97;3.63;;;8.50;99.90;;;;;;5053434;28;20433;-61
2022/12/05 12:17:05;;;;;;;4.67;4.03;;;8.40;99.90;;;;;;5052904;28;20473;-61
2022/12/05 12:20:00;;;;;;;5.13;4.53;;;8.50;99.90;;;;;;5053268;28;20433;-61
2022/12/05 12:22:48;;;;;;;5.07;4.00;;;8.40;99.90;;;;;;5052813;28;20429;-61
2022/12/05 12:25:28;;;;;;;5.27;4.30;;;8.30;99.90;;;;;;5052220;28;20481;-61
2022/12/05 12:28:05;;;;;;;3.90;3.50;;;8.30;99.90;;;;;;5052579;28;20488;-61
2022/12/05 12:30:46;;;;;;;4.30;3.90;;;8.30;99.90;;;;;;5052739;28;20483;-61
2022/12/05 12:33:22;;;;;;;3.87;3.53;;;8.30;99.90;;;;;;5053077;28;20429;-61
2022/12/05 12:35:55;;;;;;;4.40;3.67;;;8.20;99.90;;;;;;5052831;28;20456;-61
2022/12/05 12:38:53;;;;;;;4.87;4.40;;;8.30;99.90;;;;;;5052953;28;20429;-61
2022/12/05 12:41:35;;;;;;;8.50;6.43;;;8.40;99.90;;;;;;5052818;28;20453;-61
2022/12/05 12:44:12;;;;;;;11.07;7.60;;;8.50;99.90;;;;;;5053088;28;20789;-61
2022/12/05 12:46:49;;;;;;;10.73;6.40;;;8.50;99.90;;;;;;5052330;28;20571;-61
2022/12/05 12:49:30;;;;;;;7.80;5.90;;;8.50;99.90;;;;;;5052736;28;20922;-61
2022/12/05 12:52:02;;;;;;;7.20;6.50;;;8.40;99.90;;;;;;5052696;28;20430;-61
2022/12/05 12:54:42;;;;;;;6.40;5.23;;;8.40;99.90;;;;;;5052263;28;20525;-61
2022/12/05 12:57:22;;;;;;;7.30;6.57;;;8.50;99.90;;;;;;5052653;28;20465;-61
2022/12/05 13:00:01;;;;;;;6.80;6.20;;;8.40;99.90;;;;;;5052430;28;20429;-62
2022/12/05 13:02:36;;;;;;;7.13;6.43;;;8.40;99.90;;;;;;5052631;28;20449;-61
2022/12/05 13:05:08;;;;;;;8.43;6.80;;;8.30;99.90;;;;;;5052589;28;20429;-61
2022/12/05 13:07:41;;;;;;;7.27;5.53;;;8.30;99.90;;;;;;5052833;28;20603;-61
2022/12/05 13:10:20;;;;;;;11.20;9.37;;;8.30;99.90;;;;;;5052683;28;21004;-61